Trondheim, Norge

09:22:CEST den 29. august 2015 (GMT +0200)
Halsoen | | Change Station
CLOSE
Current Station
Personlig værstasjon
Location: Stjørdal, NORD-TRøNDELAG
Høyde over havet: 60 ft
Nearby Weather Stations

H.o.h 60 ft 63.47 °N, 10.91 °E | Updated 16 seconds ago

Overskyet
Overskyet
59.0 °F
Feels Like 59.0 °F
N
8.3
Vind Variabel Vind from V
Gusts 12.3 mph

I dag
High -- | Low -- °F
--% Chance of Precip.
I går
High -- | Low -- °F
Precip. -- tommer
5:51 AM 8:41 PM
Fullmåne, 100% visible
Lufttrykk 29.80 tommer
Sikt 6.2 eng. mil
Skyet Sporadisk skyet 3200 ft
For det meste skyet 4300 ft
Duggpunkt 52 °F
Fuktighet 77%
Regn 0.01 tommer
Snødybde Not available.
UV 1.0 av 12
Pollen Not available.
Luftkvalitet Not available.
Flu Activity Not available.
METAR ENVA 290650Z 25009KT 9999 -DZ SCT032 BKN043 13/09 Q1009 NOSIG RMK WIND 670FT 24016KT
Lufttrykk 29.80 tommer
Sikt 6.2 eng. mil
Skyet Sporadisk skyet 3200 ft
For det meste skyet 4300 ft
Duggpunkt 52 °F
Fuktighet 77%
Regn 0.01 tommer
Snødybde Not available.
UV 1.0 av 12
Pollen Not available.
Luftkvalitet Not available.
Flu Activity Not available.
METAR ENVA 290650Z 25009KT 9999 -DZ SCT032 BKN043 13/09 Q1009 NOSIG RMK WIND 670FT 24016KT

10-Day Weather Forecast

×

Almanac

Astronomi

Aug. 29, 2015 Oppgang Nedgang
Virkelig tid
Tussmørke
Nautisk skumring
Astronomisk skumring
Månen
Lengde av synlig lys
Dagens lengde
Tomorrow will be .
, % of the Moon is Illuminated

Dagens maks og min

Country Highs Country Lows

Community

WunderPhotos

Upload Photos

1,850,633 photos uploaded!

WunderBlogs® & News

Nearby

Luftkvalitet

  Luftkvalitet AQ Indeks Forurensing
Not available.

Snødybde

Stasjon Depth Høyde over havet

Earthquake Activity

By Distance Mag. Time & Date
Minimum magnitude displayed is 2.5.

Coastal Water Temperatures

Sted Temperatur

Stations

Nearby Weather Stations

Stasjonens lokasjon Temp. Nedkjølingseffekt Duggpunkt Fuktighet Vind Precip. H.o.h Oppdatert Type